sensor_id;sensor_type;location;lat;lon;timestamp;pressure;altitude;pressure_sealevel;temperature;humidity
58843;BME280;44614;54.356;10.100;2022-07-23T00:01:58;101527.50;;;15.20;73.85
58843;BME280;44614;54.356;10.100;2022-07-23T00:04:23;101509.41;;;15.06;73.94
58843;BME280;44614;54.356;10.100;2022-07-23T00:06:49;101521.97;;;15.20;73.79
58843;BME280;44614;54.356;10.100;2022-07-23T00:09:14;101530.72;;;15.17;73.86
58843;BME280;44614;54.356;10.100;2022-07-23T00:11:39;101527.22;;;15.10;74.21
58843;BME280;44614;54.356;10.100;2022-07-23T00:14:05;101530.00;;;15.10;74.01
58843;BME280;44614;54.356;10.100;2022-07-23T00:16:30;101499.31;;;15.00;73.95
58843;BME280;44614;54.356;10.100;2022-07-23T00:18:56;101391.25;;;14.29;73.93
58843;BME280;44614;54.356;10.100;2022-07-23T00:21:21;101518.34;;;15.08;74.29
58843;BME280;44614;54.356;10.100;2022-07-23T00:23:46;101522.78;;;15.09;74.18
58843;BME280;44614;54.356;10.100;2022-07-23T00:26:12;101524.91;;;15.07;74.51
58843;BME280;44614;54.356;10.100;2022-07-23T00:28:37;101525.63;;;15.02;74.76
58843;BME280;44614;54.356;10.100;2022-07-23T00:31:03;101525.63;;;15.02;74.46
58843;BME280;44614;54.356;10.100;2022-07-23T00:33:28;101516.22;;;14.92;74.72
58843;BME280;44614;54.356;10.100;2022-07-23T00:35:54;101509.47;;;14.87;74.83
58843;BME280;44614;54.356;10.100;2022-07-23T00:38:19;101486.34;;;14.70;74.88
58843;BME280;44614;54.356;10.100;2022-07-23T00:40:45;101494.22;;;14.85;74.64
58843;BME280;44614;54.356;10.100;2022-07-23T00:43:10;101485.38;;;14.76;75.05
58843;BME280;44614;54.356;10.100;2022-07-23T00:45:35;101513.81;;;14.95;74.88
58843;BME280;44614;54.356;10.100;2022-07-23T00:48:01;101521.63;;;14.86;74.80
58843;BME280;44614;54.356;10.100;2022-07-23T00:50:27;101521.75;;;14.92;75.42
58843;BME280;44614;54.356;10.100;2022-07-23T00:52:53;101520.91;;;14.91;75.67
58843;BME280;44614;54.356;10.100;2022-07-23T00:55:18;101523.94;;;14.90;75.49
58843;BME280;44614;54.356;10.100;2022-07-23T00:57:44;101468.13;;;14.51;76.19
58843;BME280;44614;54.356;10.100;2022-07-23T01:00:12;101530.84;;;14.80;75.89
58843;BME280;44614;54.356;10.100;2022-07-23T01:02:38;101519.56;;;14.82;75.66
58843;BME280;44614;54.356;10.100;2022-07-23T01:05:04;101527.03;;;14.81;75.96
58843;BME280;44614;54.356;10.100;2022-07-23T01:07:30;101525.94;;;14.82;75.98
58843;BME280;44614;54.356;10.100;2022-07-23T01:09:56;101484.38;;;14.59;75.88
58843;BME280;44614;54.356;10.100;2022-07-23T01:12:22;101461.34;;;14.47;76.00
58843;BME280;44614;54.356;10.100;2022-07-23T01:14:57;101520.88;;;14.79;76.08
58843;BME280;44614;54.356;10.100;2022-07-23T01:17:23;101502.78;;;14.65;76.27
58843;BME280;44614;54.356;10.100;2022-07-23T01:19:49;101518.56;;;14.76;76.55
58843;BME280;44614;54.356;10.100;2022-07-23T01:22:15;101494.47;;;14.65;76.16
58843;BME280;44614;54.356;10.100;2022-07-23T01:24:42;101504.53;;;14.78;76.31
58843;BME280;44614;54.356;10.100;2022-07-23T01:27:08;101497.41;;;14.70;76.43
58843;BME280;44614;54.356;10.100;2022-07-23T01:29:33;101494.78;;;14.75;76.41
58843;BME280;44614;54.356;10.100;2022-07-23T01:31:59;101489.13;;;14.70;75.92
58843;BME280;44614;54.356;10.100;2022-07-23T01:34:24;101498.75;;;14.79;75.73
58843;BME280;44614;54.356;10.100;2022-07-23T01:36:49;101461.66;;;14.57;75.92
58843;BME280;44614;54.356;10.100;2022-07-23T01:39:15;101483.13;;;14.73;75.81
58843;BME280;44614;54.356;10.100;2022-07-23T01:41:40;101500.31;;;14.75;76.10
58843;BME280;44614;54.356;10.100;2022-07-23T01:44:06;101493.31;;;14.73;76.21
58843;BME280;44614;54.356;10.100;2022-07-23T01:46:31;101483.28;;;14.60;75.83
58843;BME280;44614;54.356;10.100;2022-07-23T01:48:57;101489.13;;;14.70;76.31
58843;BME280;44614;54.356;10.100;2022-07-23T01:51:22;101504.25;;;14.68;76.77
58843;BME280;44614;54.356;10.100;2022-07-23T01:53:48;101433.13;;;14.26;76.91
58843;BME280;44614;54.356;10.100;2022-07-23T01:56:13;101508.31;;;14.65;76.97
58843;BME280;44614;54.356;10.100;2022-07-23T01:58:40;101491.84;;;14.58;77.01
58843;BME280;44614;54.356;10.100;2022-07-23T02:01:06;101495.81;;;14.62;76.96
58843;BME280;44614;54.356;10.100;2022-07-23T02:03:31;101501.34;;;14.62;77.00
58843;BME280;44614;54.356;10.100;2022-07-23T02:05:56;101499.03;;;14.59;77.64
58843;BME280;44614;54.356;10.100;2022-07-23T02:08:23;101441.16;;;14.16;77.37
58843;BME280;44614;54.356;10.100;2022-07-23T02:10:48;101478.53;;;14.49;77.32
58843;BME280;44614;54.356;10.100;2022-07-23T02:13:16;101493.97;;;14.56;77.48
58843;BME280;44614;54.356;10.100;2022-07-23T02:15:42;101482.09;;;14.56;77.70
58843;BME280;44614;54.356;10.100;2022-07-23T02:18:07;101483.16;;;14.55;77.66
58843;BME280;44614;54.356;10.100;2022-07-23T02:20:33;101477.41;;;14.56;77.36
58843;BME280;44614;54.356;10.100;2022-07-23T02:22:58;101470.25;;;14.49;77.93
58843;BME280;44614;54.356;10.100;2022-07-23T02:25:24;101459.66;;;14.46;77.83
58843;BME280;44614;54.356;10.100;2022-07-23T02:27:49;101475.75;;;14.49;77.95
58843;BME280;44614;54.356;10.100;2022-07-23T02:30:15;101472.16;;;14.48;77.85
58843;BME280;44614;54.356;10.100;2022-07-23T02:32:40;101448.84;;;14.44;77.84
58843;BME280;44614;54.356;10.100;2022-07-23T02:35:06;101457.22;;;14.56;77.77
58843;BME280;44614;54.356;10.100;2022-07-23T02:37:32;101459.72;;;14.57;77.62
58843;BME280;44614;54.356;10.100;2022-07-23T02:39:57;101447.28;;;14.48;77.66
58843;BME280;44614;54.356;10.100;2022-07-23T02:42:23;101459.97;;;14.56;78.05
58843;BME280;44614;54.356;10.100;2022-07-23T02:44:49;101448.78;;;14.51;77.43
58843;BME280;44614;54.356;10.100;2022-07-23T02:47:15;101465.97;;;14.53;77.60
58843;BME280;44614;54.356;10.100;2022-07-23T02:49:40;101474.41;;;14.58;77.86
58843;BME280;44614;54.356;10.100;2022-07-23T02:52:06;101459.97;;;14.56;78.24
58843;BME280;44614;54.356;10.100;2022-07-23T02:54:31;101458.88;;;14.57;78.02
58843;BME280;44614;54.356;10.100;2022-07-23T02:56:56;101455.75;;;14.53;78.41
58843;BME280;44614;54.356;10.100;2022-07-23T02:59:22;101441.56;;;14.50;77.81
58843;BME280;44614;54.356;10.100;2022-07-23T03:01:47;101454.44;;;14.56;78.16
58843;BME280;44614;54.356;10.100;2022-07-23T03:04:13;101438.41;;;14.46;78.20
58843;BME280;44614;54.356;10.100;2022-07-23T03:06:38;101432.72;;;14.41;78.51
58843;BME280;44614;54.356;10.100;2022-07-23T03:09:05;101444.16;;;14.45;78.16
58843;BME280;44614;54.356;10.100;2022-07-23T03:11:30;101452.38;;;14.51;78.64
58843;BME280;44614;54.356;10.100;2022-07-23T03:13:56;101456.41;;;14.49;78.62
58843;BME280;44614;54.356;10.100;2022-07-23T03:16:21;101453.66;;;14.49;78.88
58843;BME280;44614;54.356;10.100;2022-07-23T03:18:47;101450.00;;;14.36;79.17
58843;BME280;44614;54.356;10.100;2022-07-23T03:21:12;101469.03;;;14.45;79.56
58843;BME280;44614;54.356;10.100;2022-07-23T03:23:38;101418.31;;;14.09;79.61
58843;BME280;44614;54.356;10.100;2022-07-23T03:26:03;101437.44;;;14.22;79.49
58843;BME280;44614;54.356;10.100;2022-07-23T03:28:29;101430.50;;;14.20;79.31
58843;BME280;44614;54.356;10.100;2022-07-23T03:30:54;101475.00;;;14.42;79.33
58843;BME280;44614;54.356;10.100;2022-07-23T03:33:20;101467.94;;;14.46;79.06
58843;BME280;44614;54.356;10.100;2022-07-23T03:35:47;101469.59;;;14.35;79.49
58843;BME280;44614;54.356;10.100;2022-07-23T03:38:12;101472.63;;;14.45;79.24
58843;BME280;44614;54.356;10.100;2022-07-23T03:40:38;101458.59;;;14.47;79.21
58843;BME280;44614;54.356;10.100;2022-07-23T03:43:03;101451.97;;;14.48;78.98
58843;BME280;44614;54.356;10.100;2022-07-23T03:45:30;101453.22;;;14.52;78.90
58843;BME280;44614;54.356;10.100;2022-07-23T03:47:55;101454.91;;;14.53;78.95
58843;BME280;44614;54.356;10.100;2022-07-23T03:50:21;101453.91;;;14.47;79.66
58843;BME280;44614;54.356;10.100;2022-07-23T03:52:46;101458.81;;;14.45;79.78
58843;BME280;44614;54.356;10.100;2022-07-23T03:55:12;101450.75;;;14.44;79.71
58843;BME280;44614;54.356;10.100;2022-07-23T03:57:37;101456.88;;;14.46;79.43
58843;BME280;44614;54.356;10.100;2022-07-23T04:00:04;101456.41;;;14.49;79.33
58843;BME280;44614;54.356;10.100;2022-07-23T04:02:31;101441.38;;;14.45;78.93
58843;BME280;44614;54.356;10.100;2022-07-23T04:04:56;101451.94;;;14.54;78.78
58843;BME280;44614;54.356;10.100;2022-07-23T04:07:22;101453.97;;;14.59;78.84
58843;BME280;44614;54.356;10.100;2022-07-23T04:09:47;101447.84;;;14.57;78.99
58843;BME280;44614;54.356;10.100;2022-07-23T04:12:13;101455.66;;;14.60;79.36
58843;BME280;44614;54.356;10.100;2022-07-23T04:14:38;101407.09;;;14.34;79.46
58843;BME280;44614;54.356;10.100;2022-07-23T04:17:04;101442.94;;;14.59;79.05
58843;BME280;44614;54.356;10.100;2022-07-23T04:19:29;101442.47;;;14.62;79.32
58843;BME280;44614;54.356;10.100;2022-07-23T04:21:56;101412.41;;;14.54;78.95
58843;BME280;44614;54.356;10.100;2022-07-23T04:24:21;101432.50;;;14.73;78.95
58843;BME280;44614;54.356;10.100;2022-07-23T04:26:46;101438.38;;;14.76;79.29
58843;BME280;44614;54.356;10.100;2022-07-23T04:29:12;101424.72;;;14.81;79.13
58843;BME280;44614;54.356;10.100;2022-07-23T04:31:37;101434.69;;;14.82;79.12
58843;BME280;44614;54.356;10.100;2022-07-23T04:34:03;101430.13;;;14.88;78.78
58843;BME280;44614;54.356;10.100;2022-07-23T04:36:28;101386.47;;;14.67;78.42
58843;BME280;44614;54.356;10.100;2022-07-23T04:38:54;101400.88;;;14.80;78.44
58843;BME280;44614;54.356;10.100;2022-07-23T04:41:20;101405.94;;;14.83;78.39
58843;BME280;44614;54.356;10.100;2022-07-23T04:43:45;101436.28;;;15.02;78.50
58843;BME280;44614;54.356;10.100;2022-07-23T04:46:11;101460.47;;;15.06;78.87
58843;BME280;44614;54.356;10.100;2022-07-23T04:48:36;101452.53;;;15.10;78.64
58843;BME280;44614;54.356;10.100;2022-07-23T04:51:02;101453.16;;;15.12;78.74
58843;BME280;44614;54.356;10.100;2022-07-23T04:53:28;101413.31;;;14.90;78.73
58843;BME280;44614;54.356;10.100;2022-07-23T04:55:53;101462.78;;;15.21;78.62
58843;BME280;44614;54.356;10.100;2022-07-23T04:58:19;101451.22;;;15.24;78.54
58843;BME280;44614;54.356;10.100;2022-07-23T05:00:44;101409.72;;;14.89;78.15
58843;BME280;44614;54.356;10.100;2022-07-23T05:03:10;101475.78;;;15.21;78.41
58843;BME280;44614;54.356;10.100;2022-07-23T05:05:35;101473.63;;;15.23;78.51
58843;BME280;44614;54.356;10.100;2022-07-23T05:08:01;101467.47;;;15.21;78.50
58843;BME280;44614;54.356;10.100;2022-07-23T05:10:26;101474.69;;;15.22;78.47
58843;BME280;44614;54.356;10.100;2022-07-23T05:12:52;101465.06;;;15.13;78.63
58843;BME280;44614;54.356;10.100;2022-07-23T05:15:17;101459.25;;;15.02;78.69
58843;BME280;44614;54.356;10.100;2022-07-23T05:17:43;101447.59;;;14.89;78.66
58843;BME280;44614;54.356;10.100;2022-07-23T05:20:08;101470.94;;;15.04;78.83
58843;BME280;44614;54.356;10.100;2022-07-23T05:22:34;101482.25;;;15.15;78.70
58843;BME280;44614;54.356;10.100;2022-07-23T05:24:59;101480.47;;;15.20;78.55
58843;BME280;44614;54.356;10.100;2022-07-23T05:27:24;101483.59;;;15.24;78.36
58843;BME280;44614;54.356;10.100;2022-07-23T05:29:50;101463.13;;;15.13;78.40
58843;BME280;44614;54.356;10.100;2022-07-23T05:32:15;101475.66;;;15.27;78.31
58843;BME280;44614;54.356;10.100;2022-07-23T05:34:41;101461.22;;;15.25;78.41
58843;BME280;44614;54.356;10.100;2022-07-23T05:37:06;101463.97;;;15.37;78.67
58843;BME280;44614;54.356;10.100;2022-07-23T05:39:32;101466.75;;;15.37;78.13
58843;BME280;44614;54.356;10.100;2022-07-23T05:41:57;101474.59;;;15.52;78.12
58843;BME280;44614;54.356;10.100;2022-07-23T05:44:22;101476.63;;;15.56;78.06
58843;BME280;44614;54.356;10.100;2022-07-23T05:46:48;101467.72;;;15.54;77.96
58843;BME280;44614;54.356;10.100;2022-07-23T05:49:13;101470.59;;;15.59;77.83
58843;BME280;44614;54.356;10.100;2022-07-23T05:51:39;101461.97;;;15.68;77.59
58843;BME280;44614;54.356;10.100;2022-07-23T05:54:04;101486.41;;;15.82;77.41
58843;BME280;44614;54.356;10.100;2022-07-23T05:56:30;101477.03;;;15.83;77.07
58843;BME280;44614;54.356;10.100;2022-07-23T05:58:55;101478.56;;;15.79;76.69
58843;BME280;44614;54.356;10.100;2022-07-23T06:01:20;101456.53;;;15.61;76.62
58843;BME280;44614;54.356;10.100;2022-07-23T06:03:46;101435.72;;;15.58;76.83
58843;BME280;44614;54.356;10.100;2022-07-23T06:06:11;101469.41;;;15.91;76.76
58843;BME280;44614;54.356;10.100;2022-07-23T06:08:37;101477.22;;;15.94;76.68
58843;BME280;44614;54.356;10.100;2022-07-23T06:11:02;101474.22;;;16.07;76.65
58843;BME280;44614;54.356;10.100;2022-07-23T06:13:28;101475.00;;;16.19;76.21
58843;BME280;44614;54.356;10.100;2022-07-23T06:15:53;101474.63;;;16.27;76.13
58843;BME280;44614;54.356;10.100;2022-07-23T06:18:18;101462.69;;;16.27;75.70
58843;BME280;44614;54.356;10.100;2022-07-23T06:20:44;101412.78;;;15.98;75.39
58843;BME280;44614;54.356;10.100;2022-07-23T06:23:09;101453.19;;;16.23;75.42
58843;BME280;44614;54.356;10.100;2022-07-23T06:25:35;101461.25;;;16.24;75.78
58843;BME280;44614;54.356;10.100;2022-07-23T06:28:00;101457.44;;;16.14;75.67
58843;BME280;44614;54.356;10.100;2022-07-23T06:30:26;101432.88;;;16.05;75.89
58843;BME280;44614;54.356;10.100;2022-07-23T06:32:51;101458.97;;;16.21;75.77
58843;BME280;44614;54.356;10.100;2022-07-23T06:35:17;101452.84;;;16.19;75.91
58843;BME280;44614;54.356;10.100;2022-07-23T06:37:43;101470.41;;;16.25;75.68
58843;BME280;44614;54.356;10.100;2022-07-23T06:40:08;101481.44;;;16.08;75.79
58843;BME280;44614;54.356;10.100;2022-07-23T06:42:34;101479.84;;;16.12;76.18
58843;BME280;44614;54.356;10.100;2022-07-23T06:45:03;101469.25;;;16.09;76.17
58843;BME280;44614;54.356;10.100;2022-07-23T06:47:28;101452.56;;;15.92;75.63
58843;BME280;44614;54.356;10.100;2022-07-23T06:49:54;101468.53;;;16.02;76.15
58843;BME280;44614;54.356;10.100;2022-07-23T06:52:19;101468.53;;;16.02;75.92
58843;BME280;44614;54.356;10.100;2022-07-23T06:54:45;101455.06;;;15.94;75.89
58843;BME280;44614;54.356;10.100;2022-07-23T06:57:11;101470.72;;;16.00;75.74
58843;BME280;44614;54.356;10.100;2022-07-23T06:59:36;101473.72;;;15.98;76.24
58843;BME280;44614;54.356;10.100;2022-07-23T07:02:06;101436.69;;;15.76;75.83
58843;BME280;44614;54.356;10.100;2022-07-23T07:04:31;101479.63;;;16.02;75.73
58843;BME280;44614;54.356;10.100;2022-07-23T07:06:57;101475.66;;;15.98;75.58
58843;BME280;44614;54.356;10.100;2022-07-23T07:09:22;101478.44;;;15.98;75.65
58843;BME280;44614;54.356;10.100;2022-07-23T07:11:48;101486.34;;;16.06;75.60
58843;BME280;44614;54.356;10.100;2022-07-23T07:14:13;101486.97;;;16.08;74.92
58843;BME280;44614;54.356;10.100;2022-07-23T07:16:39;101478.78;;;16.01;75.21
58843;BME280;44614;54.356;10.100;2022-07-23T07:19:04;101490.13;;;16.00;74.85
58843;BME280;44614;54.356;10.100;2022-07-23T07:21:30;101485.44;;;15.89;75.37
58843;BME280;44614;54.356;10.100;2022-07-23T07:23:55;101489.41;;;15.93;75.29
58843;BME280;44614;54.356;10.100;2022-07-23T07:26:21;101479.28;;;15.87;75.17
58843;BME280;44614;54.356;10.100;2022-07-23T07:28:46;101485.19;;;15.78;75.64
58843;BME280;44614;54.356;10.100;2022-07-23T07:31:12;101495.31;;;15.84;75.67
58843;BME280;44614;54.356;10.100;2022-07-23T07:33:37;101451.97;;;15.55;75.47
58843;BME280;44614;54.356;10.100;2022-07-23T07:36:03;101490.53;;;15.68;75.79
58843;BME280;44614;54.356;10.100;2022-07-23T07:38:29;101493.88;;;15.70;76.05
58843;BME280;44614;54.356;10.100;2022-07-23T07:40:54;101504.59;;;15.67;75.82
58843;BME280;44614;54.356;10.100;2022-07-23T07:43:20;101501.53;;;15.56;76.39
58843;BME280;44614;54.356;10.100;2022-07-23T07:45:46;101500.69;;;15.56;76.46
58843;BME280;44614;54.356;10.100;2022-07-23T07:48:11;101495.88;;;15.51;76.63
58843;BME280;44614;54.356;10.100;2022-07-23T07:50:37;101511.03;;;15.60;76.60
58843;BME280;44614;54.356;10.100;2022-07-23T07:53:02;101507.22;;;15.62;76.52
58843;BME280;44614;54.356;10.100;2022-07-23T07:55:28;101510.47;;;15.58;76.79
58843;BME280;44614;54.356;10.100;2022-07-23T07:57:54;101514.00;;;15.66;76.57
58843;BME280;44614;54.356;10.100;2022-07-23T08:00:19;101511.41;;;15.64;76.77
58843;BME280;44614;54.356;10.100;2022-07-23T08:02:50;101415.53;;;15.23;76.42
58843;BME280;44614;54.356;10.100;2022-07-23T08:05:21;101468.84;;;15.65;75.83
58843;BME280;44614;54.356;10.100;2022-07-23T08:07:48;101510.94;;;15.91;75.20
58843;BME280;44614;54.356;10.100;2022-07-23T08:10:13;101516.47;;;16.02;74.86
58843;BME280;44614;54.356;10.100;2022-07-23T08:12:47;101505.84;;;16.23;74.38
58843;BME280;44614;54.356;10.100;2022-07-23T08:15:18;101502.16;;;16.46;73.86
58843;BME280;44614;54.356;10.100;2022-07-23T08:17:48;101502.34;;;16.68;73.57
58843;BME280;44614;54.356;10.100;2022-07-23T08:20:16;101508.84;;;16.73;72.90
58843;BME280;44614;54.356;10.100;2022-07-23T08:22:48;101507.31;;;16.94;72.92
58843;BME280;44614;54.356;10.100;2022-07-23T08:25:14;101488.47;;;17.13;71.52
58843;BME280;44614;54.356;10.100;2022-07-23T08:27:40;101498.84;;;17.35;70.22
58843;BME280;44614;54.356;10.100;2022-07-23T08:33:00;101493.78;;;17.48;70.64
58843;BME280;44614;54.356;10.100;2022-07-23T08:35:35;101502.53;;;17.57;71.01
58843;BME280;44614;54.356;10.100;2022-07-23T08:38:04;101482.59;;;17.60;71.13
58843;BME280;44614;54.356;10.100;2022-07-23T08:40:31;101498.47;;;17.82;70.49
58843;BME280;44614;54.356;10.100;2022-07-23T08:42:57;101507.41;;;17.84;70.85
58843;BME280;44614;54.356;10.100;2022-07-23T08:45:24;101502.00;;;17.94;71.06
58843;BME280;44614;54.356;10.100;2022-07-23T08:47:56;101502.53;;;18.13;71.06
58843;BME280;44614;54.356;10.100;2022-07-23T08:50:24;101491.63;;;18.28;69.59
58843;BME280;44614;54.356;10.100;2022-07-23T08:52:50;101495.44;;;18.44;69.29
58843;BME280;44614;54.356;10.100;2022-07-23T08:55:21;101508.78;;;18.69;68.40
58843;BME280;44614;54.356;10.100;2022-07-23T08:57:52;101501.78;;;18.88;68.62
58843;BME280;44614;54.356;10.100;2022-07-23T09:00:18;101504.41;;;19.00;67.43
58843;BME280;44614;54.356;10.100;2022-07-23T09:02:45;101510.75;;;18.95;67.26
58843;BME280;44614;54.356;10.100;2022-07-23T09:05:11;101494.91;;;18.96;67.24
58843;BME280;44614;54.356;10.100;2022-07-23T09:07:38;101501.06;;;18.98;67.31
58843;BME280;44614;54.356;10.100;2022-07-23T09:10:23;101495.44;;;18.93;66.90
58843;BME280;44614;54.356;10.100;2022-07-23T09:12:48;101501.31;;;18.96;66.62
58843;BME280;44614;54.356;10.100;2022-07-23T09:15:14;101508.88;;;19.01;66.05
58843;BME280;44614;54.356;10.100;2022-07-23T09:17:42;101488.75;;;18.94;66.66
58843;BME280;44614;54.356;10.100;2022-07-23T09:20:09;101515.13;;;19.13;66.70
58843;BME280;44614;54.356;10.100;2022-07-23T09:22:36;101508.91;;;19.06;66.13
58843;BME280;44614;54.356;10.100;2022-07-23T09:25:29;101526.66;;;19.00;64.15
58843;BME280;44614;54.356;10.100;2022-07-23T09:27:58;101505.34;;;18.84;67.04
58843;BME280;44614;54.356;10.100;2022-07-23T09:30:26;101532.78;;;18.97;67.63
58843;BME280;44614;54.356;10.100;2022-07-23T09:33:14;101499.53;;;18.85;64.43
58843;BME280;44614;54.356;10.100;2022-07-23T09:35:53;101514.94;;;18.93;65.62
58843;BME280;44614;54.356;10.100;2022-07-23T09:38:22;101523.94;;;19.05;66.54
58843;BME280;44614;54.356;10.100;2022-07-23T09:41:11;101510.69;;;19.17;63.54
58843;BME280;44614;54.356;10.100;2022-07-23T09:43:37;101513.63;;;19.33;65.54
58843;BME280;44614;54.356;10.100;2022-07-23T09:46:26;101527.53;;;19.33;65.29
58843;BME280;44614;54.356;10.100;2022-07-23T09:48:53;101528.13;;;19.35;66.03
58843;BME280;44614;54.356;10.100;2022-07-23T09:51:19;101522.63;;;19.45;65.66
58843;BME280;44614;54.356;10.100;2022-07-23T09:54:05;101505.88;;;19.40;65.36
58843;BME280;44614;54.356;10.100;2022-07-23T09:56:30;101519.97;;;19.60;64.81
58843;BME280;44614;54.356;10.100;2022-07-23T09:58:56;101519.91;;;19.87;64.90
58843;BME280;44614;54.356;10.100;2022-07-23T10:01:38;101521.47;;;20.15;64.66
58843;BME280;44614;54.356;10.100;2022-07-23T10:04:03;101523.81;;;20.34;58.60
58843;BME280;44614;54.356;10.100;2022-07-23T10:06:29;101508.72;;;20.35;63.58
58843;BME280;44614;54.356;10.100;2022-07-23T10:08:57;101521.66;;;20.56;62.07
58843;BME280;44614;54.356;10.100;2022-07-23T10:11:23;101527.84;;;20.63;63.70
58843;BME280;44614;54.356;10.100;2022-07-23T10:13:49;101514.75;;;20.69;63.41
58843;BME280;44614;54.356;10.100;2022-07-23T10:16:16;101535.19;;;20.95;63.22
58843;BME280;44614;54.356;10.100;2022-07-23T10:18:42;101504.78;;;21.09;62.77
58843;BME280;44614;54.356;10.100;2022-07-23T10:21:08;101517.94;;;21.59;60.30
58843;BME280;44614;54.356;10.100;2022-07-23T10:23:39;101528.25;;;21.74;61.15
58843;BME280;44614;54.356;10.100;2022-07-23T10:26:58;101531.03;;;21.89;60.63
58843;BME280;44614;54.356;10.100;2022-07-23T10:32:02;101546.97;;;21.89;58.77
58843;BME280;44614;54.356;10.100;2022-07-23T10:34:44;101540.59;;;21.53;60.71
58843;BME280;44614;54.356;10.100;2022-07-23T10:37:22;101551.72;;;21.32;62.30
58843;BME280;44614;54.356;10.100;2022-07-23T10:40:13;101551.41;;;21.03;61.09
58843;BME280;44614;54.356;10.100;2022-07-23T10:42:40;101546.88;;;20.77;62.52
58843;BME280;44614;54.356;10.100;2022-07-23T10:45:32;101560.19;;;20.59;59.04
58843;BME280;44614;54.356;10.100;2022-07-23T10:48:19;101559.50;;;20.37;61.92
58843;BME280;44614;54.356;10.100;2022-07-23T10:51:15;101573.78;;;19.98;57.77
58843;BME280;44614;54.356;10.100;2022-07-23T10:56:15;101565.88;;;19.53;63.73
58843;BME280;44614;54.356;10.100;2022-07-23T10:58:49;101568.50;;;19.37;61.98
58843;BME280;44614;54.356;10.100;2022-07-23T11:01:35;101570.28;;;19.16;63.32
58843;BME280;44614;54.356;10.100;2022-07-23T11:04:02;101570.19;;;19.11;63.68
58843;BME280;44614;54.356;10.100;2022-07-23T11:09:31;101588.63;;;18.90;63.07
58843;BME280;44614;54.356;10.100;2022-07-23T11:15:11;101583.53;;;19.04;62.11
58843;BME280;44614;54.356;10.100;2022-07-23T11:25:11;101536.53;;;19.40;60.84
58843;BME280;44614;54.356;10.100;2022-07-23T11:27:41;101581.16;;;19.77;60.89
58843;BME280;44614;54.356;10.100;2022-07-23T11:30:09;101574.66;;;20.04;59.96
58843;BME280;44614;54.356;10.100;2022-07-23T11:32:39;101578.69;;;20.23;59.75
58843;BME280;44614;54.356;10.100;2022-07-23T11:35:26;101582.41;;;20.39;58.71
58843;BME280;44614;54.356;10.100;2022-07-23T11:37:54;101573.50;;;20.42;59.23
58843;BME280;44614;54.356;10.100;2022-07-23T11:40:24;101561.03;;;20.07;59.83
58843;BME280;44614;54.356;10.100;2022-07-23T11:42:55;101581.69;;;20.11;60.27
58843;BME280;44614;54.356;10.100;2022-07-23T11:45:21;101574.25;;;20.27;59.94
58843;BME280;44614;54.356;10.100;2022-07-23T11:47:47;101574.84;;;20.39;59.42
58843;BME280;44614;54.356;10.100;2022-07-23T11:50:12;101571.75;;;20.31;59.54
58843;BME280;44614;54.356;10.100;2022-07-23T11:52:38;101571.72;;;20.26;59.20
58843;BME280;44614;54.356;10.100;2022-07-23T11:55:07;101578.59;;;20.08;60.02
58843;BME280;44614;54.356;10.100;2022-07-23T11:57:35;101560.34;;;19.90;61.20
58843;BME280;44614;54.356;10.100;2022-07-23T12:00:07;101581.59;;;20.01;61.23
58843;BME280;44614;54.356;10.100;2022-07-23T12:02:34;101573.63;;;20.15;60.34
58843;BME280;44614;54.356;10.100;2022-07-23T12:04:59;101573.44;;;20.37;60.05
58843;BME280;44614;54.356;10.100;2022-07-23T12:07:41;101583.63;;;20.53;58.38
58843;BME280;44614;54.356;10.100;2022-07-23T12:10:15;101567.44;;;20.60;59.49
58843;BME280;44614;54.356;10.100;2022-07-23T12:12:48;101562.25;;;20.94;58.75
58843;BME280;44614;54.356;10.100;2022-07-23T12:15:32;101557.00;;;21.13;55.93
58843;BME280;44614;54.356;10.100;2022-07-23T12:18:01;101569.53;;;21.06;58.27
58843;BME280;44614;54.356;10.100;2022-07-23T12:20:31;101554.91;;;20.68;58.30
58843;BME280;44614;54.356;10.100;2022-07-23T12:22:59;101568.75;;;20.48;59.59
58843;BME280;44614;54.356;10.100;2022-07-23T12:25:28;101571.41;;;20.22;59.69
58843;BME280;44614;54.356;10.100;2022-07-23T12:28:09;101567.66;;;19.96;60.22
58843;BME280;44614;54.356;10.100;2022-07-23T12:35:54;101589.75;;;19.43;61.03
58843;BME280;44614;54.356;10.100;2022-07-23T12:38:22;101583.09;;;19.17;60.76
58843;BME280;44614;54.356;10.100;2022-07-23T12:40:59;101584.03;;;19.01;61.00
58843;BME280;44614;54.356;10.100;2022-07-23T12:43:26;101587.28;;;18.93;60.74
58843;BME280;44614;54.356;10.100;2022-07-23T12:48:22;101595.66;;;18.71;61.27
58843;BME280;44614;54.356;10.100;2022-07-23T12:56:30;101594.19;;;18.68;61.09
58843;BME280;44614;54.356;10.100;2022-07-23T12:58:49;101599.41;;;18.65;61.23
58843;BME280;44614;54.356;10.100;2022-07-23T13:04:07;101596.88;;;19.07;60.44
58843;BME280;44614;54.356;10.100;2022-07-23T13:08:59;101595.00;;;20.04;58.31
58843;BME280;44614;54.356;10.100;2022-07-23T13:11:25;101586.31;;;20.38;57.80
58843;BME280;44614;54.356;10.100;2022-07-23T13:13:50;101593.81;;;20.37;58.01
58843;BME280;44614;54.356;10.100;2022-07-23T13:16:16;101590.66;;;20.18;58.24
58843;BME280;44614;54.356;10.100;2022-07-23T13:18:41;101596.09;;;20.03;58.78
58843;BME280;44614;54.356;10.100;2022-07-23T13:21:07;101596.66;;;20.00;58.93
58843;BME280;44614;54.356;10.100;2022-07-23T13:23:33;101586.22;;;19.85;59.14